Time;durP1;ratioP1;P1;durP2;ratioP2;P2;SDS_P1;SDS_P2;PMS_P1;PMS_P2;Temp;Humidity;BMP_temperature;BMP_pressure;BME280_temperature;BME280_humidity;BME280_pressure;Samples;Min_cycle;Max_cycle;Signal;HPM_P1;HPM_P2
2024/01/09 00:11:57;;;;;;;19.10;13.63;;;;;;;-147.20;100.00;63046.97;32121981;27;34707;-70
2024/01/09 00:26:57;;;;;;;31.17;12.73;;;;;;;-147.20;100.00;63046.97;32092573;27;33288;-64
2024/01/09 00:41:57;;;;;;;24.10;12.70;;;;;;;-147.20;100.00;63046.97;32090181;27;34602;-70
2024/01/09 00:56:58;;;;;;;26.97;14.60;;;;;;;-147.20;100.00;63046.97;32144144;27;33668;-69
2024/01/09 01:11:58;;;;;;;24.00;14.67;;;;;;;-147.20;100.00;63046.97;32134038;27;20510;-61
2024/01/09 01:26:58;;;;;;;25.77;14.13;;;;;;;-147.20;100.00;63046.97;32141128;27;35948;-71
2024/01/09 01:41:59;;;;;;;20.93;13.93;;;;;;;-147.20;100.00;63046.97;32139407;27;35978;-64
2024/01/09 01:57:01;;;;;;;21.90;12.23;;;;;;;-147.20;100.00;63046.97;32144185;27;20441;-65
2024/01/09 02:12:01;;;;;;;25.00;14.30;;;;;;;-147.20;100.00;63046.97;32136530;27;20503;-59
2024/01/09 02:27:24;;;;;;;19.23;9.77;;;;;;;-147.20;100.00;63046.97;32144576;27;20070;-69
2024/01/09 02:42:25;;;;;;;19.73;9.73;;;;;;;-147.20;100.00;63046.97;32149064;27;20043;-72
2024/01/09 02:57:25;;;;;;;24.40;14.10;;;;;;;-147.20;100.00;63046.97;32133377;27;33736;-63
2024/01/09 03:12:25;;;;;;;23.37;11.20;;;;;;;-147.20;100.00;63046.97;32141001;27;34389;-69
2024/01/09 03:27:26;;;;;;;14.80;12.70;;;;;;;-147.20;100.00;63046.97;32149754;27;20472;-67
2024/01/09 03:42:26;;;;;;;17.87;12.13;;;;;;;-147.20;100.00;63046.97;32130738;27;20051;-63
2024/01/09 03:57:26;;;;;;;21.53;12.70;;;;;;;-147.20;100.00;63046.97;32138212;27;34641;-60
2024/01/09 04:12:26;;;;;;;17.87;13.07;;;;;;;-147.20;100.00;63046.97;32142454;27;35811;-71
2024/01/09 04:27:27;;;;;;;24.20;14.13;;;;;;;-147.20;100.00;63046.97;32137183;27;34591;-62
2024/01/09 04:42:27;;;;;;;33.20;14.47;;;;;;;-147.20;100.00;63046.97;32181455;27;33629;-70
2024/01/09 04:57:28;;;;;;;21.50;10.67;;;;;;;-147.20;100.00;63046.97;32083014;27;20089;-71
2024/01/09 05:12:28;;;;;;;17.47;10.93;;;;;;;-147.20;100.00;63046.97;32081514;27;33743;-68
2024/01/09 05:27:28;;;;;;;24.00;9.83;;;;;;;-147.20;100.00;63046.97;32153193;27;20045;-71
2024/01/09 05:42:29;;;;;;;19.93;10.90;;;;;;;-147.20;100.00;63046.97;32097812;27;20047;-63
2024/01/09 05:57:29;;;;;;;18.90;10.60;;;;;;;-147.20;100.00;63046.97;32053022;27;20057;-66
2024/01/09 06:12:29;;;;;;;14.80;12.27;;;;;;;-147.20;100.00;63046.97;32051808;27;20034;-66
2024/01/09 06:27:30;;;;;;;13.87;11.63;;;;;;;-147.20;100.00;63046.97;32053077;27;20082;-64
2024/01/09 06:42:30;;;;;;;14.03;10.47;;;;;;;-147.20;100.00;63046.97;32050476;27;33480;-72
2024/01/09 06:57:30;;;;;;;17.87;9.00;;;;;;;-12.57;63.85;102297.88;32038417;27;20027;-61
2024/01/09 07:12:31;;;;;;;17.70;12.27;;;;;;;-12.57;64.14;102287.59;32002378;27;20031;-62
2024/01/09 07:27:31;;;;;;;16.73;11.50;;;;;;;-12.02;64.85;102309.13;31981356;27;42937;-70
2024/01/09 07:42:31;;;;;;;22.10;13.00;;;;;;;-10.86;64.57;102308.19;31998060;27;42771;-65
2024/01/09 07:57:33;;;;;;;27.00;16.40;;;;;;;-9.67;63.73;102305.84;31997397;27;20035;-67
2024/01/09 08:12:33;;;;;;;30.10;17.03;;;;;;;-7.10;63.71;102302.03;32028217;27;20034;-67
2024/01/09 08:27:33;;;;;;;20.45;10.23;;;;;;;-3.81;55.20;102302.19;32036599;27;41305;-66
2024/01/09 08:42:33;;;;;;;34.58;19.92;;;;;;;0.01;53.41;102278.88;32034560;27;20050;-62
2024/01/09 08:57:34;;;;;;;38.33;19.00;;;;;;;1.58;48.39;102291.59;32034168;27;41756;-69
2024/01/09 09:12:34;;;;;;;36.88;19.25;;;;;;;4.01;45.41;102286.22;32033887;27;44246;-65
2024/01/09 09:27:35;;;;;;;45.58;23.00;;;;;;;6.86;40.02;102277.56;32011071;27;20047;-62
2024/01/09 09:42:36;;;;;;;45.95;25.00;;;;;;;8.62;37.97;102278.53;32009195;27;20047;-66
2024/01/09 09:57:37;;;;;;;45.30;25.83;;;;;;;11.42;32.71;102277.19;32009767;27;20478;-62
2024/01/09 10:12:39;;;;;;;41.13;24.33;;;;;;;13.60;29.13;102273.84;32008830;27;21326;-71
2024/01/09 10:27:40;;;;;;;41.40;25.10;;;;;;;15.50;25.88;102256.84;32004241;27;20380;-68
2024/01/09 10:42:46;;;;;;;43.70;26.60;;;;;;;16.45;23.21;102236.63;32003541;27;20718;-70
2024/01/09 10:57:47;;;;;;;45.50;26.63;;;;;;;17.19;21.73;102224.31;32002938;27;20092;-70
2024/01/09 11:12:50;;;;;;;49.47;28.10;;;;;;;18.52;20.12;102214.38;32002616;27;20031;-67
2024/01/09 11:27:53;;;;;;;42.80;28.58;;;;;;;18.65;18.99;102211.16;31998211;27;20031;-66
2024/01/09 11:42:53;;;;;;;45.70;29.33;;;;;;;21.15;17.20;102184.25;31997020;27;20043;-63
2024/01/09 11:57:54;;;;;;;;;;;;;;;22.02;16.13;102181.47;31997468;27;20486;-64
2024/01/09 12:13:02;;;;;;;41.43;25.13;;;;;;;22.99;15.59;102183.25;31997700;27;19915;-71
2024/01/09 12:28:03;;;;;;;37.53;25.48;;;;;;;22.75;15.43;102164.78;31993243;27;20042;-63
2024/01/09 12:43:08;;;;;;;34.40;23.88;;;;;;;22.73;14.50;102156.00;31639208;27;96751;-68
2024/01/09 12:58:09;;;;;;;36.80;22.37;;;;;;;22.74;14.26;102161.22;31630337;27;96762;-69
2024/01/09 13:13:09;;;;;;;35.00;21.02;;;;;;;22.27;14.11;102143.88;31992692;27;96589;-71
2024/01/09 13:28:11;;;;;;;28.38;19.90;;;;;;;20.33;14.55;102142.81;32012786;27;20035;-70
2024/01/09 13:43:11;;;;;;;35.58;18.85;;;;;;;18.78;14.84;102154.72;32009942;27;20051;-62
2024/01/09 13:58:15;;;;;;;38.35;20.08;;;;;;;16.92;15.99;102137.44;32010475;27;20062;-66
2024/01/09 14:13:16;;;;;;;34.47;19.88;;;;;;;14.72;17.44;102141.88;32006934;27;20035;-68
2024/01/09 14:28:16;;;;;;;31.15;17.73;;;;;;;11.54;19.09;102127.69;32006671;27;20046;-67
2024/01/09 14:43:16;;;;;;;40.17;17.40;;;;;;;6.24;22.91;102126.88;32005200;27;40443;-61
2024/01/09 14:58:17;;;;;;;33.92;16.83;;;;;;;0.71;28.58;102148.81;32004549;27;20395;-61
2024/01/09 15:13:17;;;;;;;36.13;16.63;;;;;;;-2.42;31.93;102163.75;31999335;27;42854;-64
2024/01/09 15:28:17;;;;;;;31.13;14.68;;;;;;;-4.31;35.65;102171.13;32001186;27;20043;-61
2024/01/09 15:43:18;;;;;;;28.75;14.68;;;;;;;-6.00;38.21;102180.28;31999724;27;20043;-70
2024/01/09 15:58:18;;;;;;;32.53;17.55;;;;;;;-6.82;40.97;102170.56;31996605;27;42770;-62
2024/01/09 16:13:20;;;;;;;29.98;16.60;;;;;;;-7.54;43.41;102161.47;31998602;27;20039;-61
2024/01/09 16:28:20;;;;;;;28.80;16.67;;;;;;;-8.41;44.49;102165.94;32004903;27;20126;-60
2024/01/09 16:43:20;;;;;;;34.20;16.73;;;;;;;-8.88;45.81;102173.69;32018971;27;20166;-62
2024/01/09 16:58:21;;;;;;;32.70;18.97;;;;;;;-9.43;48.43;102171.81;32015864;27;23251;-62
2024/01/09 17:13:23;;;;;;;42.83;18.33;;;;;;;-9.74;49.33;102157.91;32054131;27;20034;-62
2024/01/09 17:28:23;;;;;;;38.53;18.77;;;;;;;-9.66;49.50;102158.81;32132226;27;20030;-65
2024/01/09 17:43:23;;;;;;;44.83;20.40;;;;;;;-9.97;49.29;102166.38;32122677;27;20047;-63
2024/01/09 17:58:25;;;;;;;33.23;18.90;;;;;;;-10.32;50.45;102154.09;32098220;27;41805;-67
2024/01/09 18:13:25;;;;;;;33.93;15.30;;;;;;;-10.47;51.80;102159.16;32112660;27;20344;-69
2024/01/09 18:28:26;;;;;;;38.77;17.77;;;;;;;-10.42;51.41;102157.50;32118943;27;42802;-68
2024/01/09 18:43:26;;;;;;;38.50;18.97;;;;;;;-10.44;51.33;102157.50;32111469;27;41825;-68
2024/01/09 18:58:27;;;;;;;33.23;16.63;;;;;;;-10.56;52.33;102152.25;32091345;27;43191;-67
2024/01/09 19:13:27;;;;;;;36.30;15.57;;;;;;;-10.65;52.55;102154.72;32074084;27;32547;-63
2024/01/09 19:28:28;;;;;;;36.97;16.27;;;;;;;-10.82;52.31;102152.03;32023886;27;20390;-74
2024/01/09 19:43:28;;;;;;;30.60;17.00;;;;;;;-10.77;53.30;102143.47;32039120;27;43140;-66
2024/01/09 19:58:29;;;;;;;25.97;15.10;;;;;;;-10.63;53.27;102140.13;32008805;27;20034;-71
2024/01/09 20:13:29;;;;;;;40.97;19.27;;;;;;;-10.66;53.80;102135.84;31993811;27;20463;-67
2024/01/09 20:28:29;;;;;;;48.03;22.43;;;;;;;-10.78;53.79;102133.16;32018611;27;40590;-68
2024/01/09 20:43:30;;;;;;;57.43;29.00;;;;;;;-10.94;53.97;102115.00;32047348;27;41719;-69
2024/01/09 20:58:31;;;;;;;52.43;24.60;;;;;;;-11.21;54.34;102113.00;32120580;27;20045;-64
2024/01/09 21:13:31;;;;;;;56.57;30.17;;;;;;;-11.22;55.20;102119.00;32125950;27;20091;-64
2024/01/09 21:28:31;;;;;;;43.07;28.13;;;;;;;-11.35;55.48;102122.31;32112401;27;20035;-65
2024/01/09 21:43:32;;;;;;;46.37;25.70;;;;;;;-11.42;55.69;102118.81;32103722;27;36820;-71
2024/01/09 21:58:32;;;;;;;48.53;26.43;;;;;;;-11.35;55.86;102120.59;32113010;27;41495;-69
2024/01/09 22:13:32;;;;;;;42.00;26.47;;;;;;;-11.43;55.84;102109.34;32111186;27;41507;-67
2024/01/09 22:28:34;;;;;;;53.73;29.50;;;;;;;-11.52;56.64;102091.22;32123781;27;43244;-61
2024/01/09 22:43:34;;;;;;;47.90;25.53;;;;;;;-11.70;56.84;102079.88;32136787;27;20050;-71
2024/01/09 22:58:34;;;;;;;34.90;28.50;;;;;;;-11.81;57.48;102076.34;32134628;27;20031;-74
2024/01/09 23:13:39;;;;;;;51.50;26.47;;;;;;;-11.98;57.25;102038.47;32133767;27;30163;-73
2024/01/09 23:28:39;;;;;;;51.63;24.93;;;;;;;-11.97;57.42;102029.03;32115455;27;20058;-66
2024/01/09 23:43:39;;;;;;;52.63;25.53;;;;;;;-12.15;57.53;102024.53;32130039;27;42794;-76
2024/01/09 23:58:40;;;;;;;57.23;26.73;;;;;;;-12.27;57.70;102036.41;32129824;27;41520;-74
